Time;durP1;ratioP1;P1;durP2;ratioP2;P2;SDS_P1;SDS_P2;PMS_P1;PMS_P2;Temp;Humidity;BMP_temperature;BMP_pressure;BME280_temperature;BME280_humidity;BME280_pressure;Samples;Min_cycle;Max_cycle;Signal;HPM_P1;HPM_P2
2022/09/23 00:01:47;;;;;;;44.80;42.30;;;;;;;18.65;72.36;101028.72;4999731;28;103737;-56
2022/09/23 00:04:14;;;;;;;63.08;59.65;;;;;;;18.64;72.29;101011.34;5003095;28;102269;-55
2022/09/23 00:06:40;;;;;;;71.35;67.50;;;;;;;18.66;72.28;101019.31;4999217;28;102236;-55
2022/09/23 00:09:07;;;;;;;48.92;46.13;;;;;;;18.65;72.03;101017.69;5001396;28;104052;-54
2022/09/23 00:11:35;;;;;;;43.30;40.78;;;;;;;18.64;72.42;101013.28;4999083;28;102223;-55
2022/09/23 00:14:01;;;;;;;63.28;59.90;;;;;;;18.65;72.31;101017.69;4995457;28;102332;-56
2022/09/23 00:16:31;;;;;;;76.50;72.45;;;;;;;18.65;72.30;101023.22;4996299;28;102335;-55
2022/09/23 00:18:58;;;;;;;74.28;70.35;;;;;;;18.63;72.25;101014.44;4996931;28;104130;-55
2022/09/23 00:21:25;;;;;;;73.20;69.20;;;;;;;18.65;72.37;101023.22;4998283;28;103099;-55
2022/09/23 00:23:51;;;;;;;74.53;70.32;;;;;;;18.64;72.27;101018.81;5002168;28;102040;-55
2022/09/23 00:26:19;;;;;;;70.78;66.90;;;;;;;18.64;72.64;101010.53;5003770;28;102112;-55
2022/09/23 00:28:48;;;;;;;64.93;61.37;;;;;;;18.64;72.20;101016.88;5012477;28;104119;-55
2022/09/23 00:31:16;;;;;;;72.68;68.80;;;;;;;18.63;72.26;101017.19;5013790;28;102327;-55
2022/09/23 00:33:43;;;;;;;73.22;69.32;;;;;;;18.63;72.21;101014.44;5014151;28;104536;-55
2022/09/23 00:36:11;;;;;;;74.80;70.78;;;;;;;18.63;72.27;101006.16;5015296;28;102626;-55
2022/09/23 00:38:38;;;;;;;68.60;64.90;;;;;;;18.63;72.50;101011.69;5014369;28;103709;-55
2022/09/23 00:41:05;;;;;;;75.78;71.80;;;;;;;18.63;72.60;101006.97;5013735;28;102581;-55
2022/09/23 00:43:37;;;;;;;73.13;69.25;;;;;;;18.61;72.49;101003.75;5013210;28;102340;-55
2022/09/23 00:46:07;;;;;;;67.00;63.45;;;;;;;18.62;71.93;101015.56;5013051;27;102513;-55
2022/09/23 00:48:34;;;;;;;73.75;69.60;;;;;;;18.62;72.17;101019.16;5007090;28;104037;-55
2022/09/23 00:51:01;;;;;;;74.95;70.97;;;;;;;18.63;72.53;101019.94;5003815;28;102529;-56
2022/09/23 00:53:28;;;;;;;70.90;67.18;;;;;;;18.63;72.27;101025.47;5003315;28;102206;-55
2022/09/23 00:56:00;;;;;;;65.03;61.53;;;;;;;18.62;72.18;101024.66;5008766;28;102365;-56
2022/09/23 00:58:31;;;;;;;66.53;62.90;;;;;;;18.62;72.18;101021.09;5008800;28;103980;-55
2022/09/23 01:00:59;;;;;;;69.25;65.45;;;;;;;18.61;72.29;101022.19;5001223;28;102434;-55
2022/09/23 01:03:28;;;;;;;70.45;66.68;;;;;;;18.61;72.16;101028.56;5006502;28;102768;-55
2022/09/23 01:05:55;;;;;;;66.57;62.92;;;;;;;18.62;72.19;101029.34;5003268;28;102419;-55
2022/09/23 01:08:23;;;;;;;71.38;67.55;;;;;;;18.61;72.24;101019.44;5001097;28;103773;-55
2022/09/23 01:11:01;;;;;;;46.53;43.92;;;;;;;18.61;72.52;101019.44;5000290;28;102542;-55
2022/09/23 01:13:34;;;;;;;41.47;39.17;;;;;;;18.61;72.29;101022.19;4996655;28;102488;-55
2022/09/23 01:16:07;;;;;;;73.82;69.90;;;;;;;18.61;72.68;101023.03;5007923;28;102300;-55
2022/09/23 01:18:43;;;;;;;69.10;65.45;;;;;;;18.61;72.57;101019.44;5012901;28;104099;-55
2022/09/23 01:21:26;;;;;;;79.40;75.22;;;;;;;18.60;72.28;101026.91;5001648;28;104291;-55
2022/09/23 01:24:32;;;;;;;67.75;64.05;;;;;;;18.60;72.51;101023.34;5009968;28;102604;-55
2022/09/23 01:27:07;;;;;;;69.90;66.20;;;;;;;18.60;72.45;101015.06;5005969;28;102341;-55
2022/09/23 01:30:10;;;;;;;68.55;64.80;;;;;;;18.59;72.55;101022.53;5013943;28;103901;-55
2022/09/23 01:32:58;;;;;;;63.22;59.85;;;;;;;18.60;72.18;101017.81;4999840;28;102543;-56
2022/09/23 01:35:33;;;;;;;67.75;64.13;;;;;;;18.59;72.48;101021.72;5005739;28;102343;-55
2022/09/23 01:38:10;;;;;;;71.57;67.80;;;;;;;18.60;72.54;101026.09;5005973;28;102072;-55
2022/09/23 01:40:47;;;;;;;72.03;68.23;;;;;;;18.59;72.60;101021.72;4995647;28;103940;-55
2022/09/23 01:43:23;;;;;;;71.70;67.88;;;;;;;18.60;72.37;101026.09;5000027;28;101988;-55
2022/09/23 01:45:55;;;;;;;77.25;73.15;;;;;;;18.58;72.53;101020.91;5005374;28;102608;-56
2022/09/23 01:48:30;;;;;;;73.93;70.00;;;;;;;18.59;72.67;101024.47;5003305;28;102443;-55
2022/09/23 01:51:03;;;;;;;72.68;68.75;;;;;;;18.59;72.55;101024.47;5005182;28;104001;-55
2022/09/23 01:53:37;;;;;;;71.90;68.05;;;;;;;18.59;72.59;101027.22;5004471;28;102202;-55
2022/09/23 01:56:09;;;;;;;69.00;65.25;;;;;;;18.59;72.45;101025.28;5012505;28;101990;-55
2022/09/23 01:58:41;;;;;;;71.95;68.15;;;;;;;18.58;72.64;101023.66;5004205;28;101969;-55
2022/09/23 02:01:14;;;;;;;65.90;62.40;;;;;;;18.59;72.51;101030.00;5006813;28;103878;-56
2022/09/23 02:03:48;;;;;;;65.55;62.08;;;;;;;18.58;72.39;101028.38;5004131;28;102579;-55
2022/09/23 02:06:20;;;;;;;74.60;70.57;;;;;;;18.58;72.56;101029.19;4994583;28;102268;-55
2022/09/23 02:08:52;;;;;;;64.55;61.05;;;;;;;18.57;72.28;101038.59;4996760;28;102675;-54
2022/09/23 02:11:18;;;;;;;68.75;65.03;;;;;;;18.58;72.28;101045.72;5010294;28;104002;-55
2022/09/23 02:13:51;;;;;;;69.57;65.85;;;;;;;18.59;72.72;101046.53;5000997;28;102667;-56
2022/09/23 02:16:25;;;;;;;66.65;63.13;;;;;;;18.58;72.41;101044.91;5013216;28;102326;-55
2022/09/23 02:18:56;;;;;;;70.20;66.55;;;;;;;18.58;72.50;101044.91;5013183;28;102222;-56
2022/09/23 02:21:28;;;;;;;74.20;70.38;;;;;;;18.58;72.87;101053.19;5007488;28;103895;-55
2022/09/23 02:24:01;;;;;;;66.85;63.33;;;;;;;18.57;72.42;101044.09;5011758;28;102654;-55
2022/09/23 02:26:33;;;;;;;71.75;67.97;;;;;;;18.57;72.78;101043.25;5012422;28;102347;-55
2022/09/23 02:29:08;;;;;;;65.60;62.05;;;;;;;18.56;72.79;101036.94;5017142;28;102551;-55
2022/09/23 02:31:39;;;;;;;71.30;67.50;;;;;;;18.57;72.67;101040.50;5015527;28;104080;-55
2022/09/23 02:34:20;;;;;;;68.50;64.93;;;;;;;18.55;72.48;101035.31;5016892;28;102471;-55
2022/09/23 02:36:57;;;;;;;65.72;62.33;;;;;;;18.56;72.65;101038.88;5014643;28;102409;-55
2022/09/23 02:39:35;;;;;;;62.47;59.15;;;;;;;18.56;72.35;101036.13;5011144;28;102513;-54
2022/09/23 02:42:06;;;;;;;65.78;62.17;;;;;;;18.56;72.56;101041.66;5008038;28;103924;-55
2022/09/23 02:44:33;;;;;;;68.95;65.32;;;;;;;18.56;72.90;101055.44;5016960;28;102285;-56
2022/09/23 02:46:59;;;;;;;64.90;61.47;;;;;;;18.56;72.56;101049.91;5015582;28;102417;-55
2022/09/23 02:49:30;;;;;;;73.13;69.10;;;;;;;18.56;72.74;101059.00;5012365;28;103278;-55
2022/09/23 02:52:03;;;;;;;68.05;64.50;;;;;;;18.56;72.52;101066.44;5007294;28;103993;-55
2022/09/23 02:54:34;;;;;;;65.93;62.42;;;;;;;18.56;72.60;101063.69;5015958;28;102308;-55
2022/09/23 02:57:04;;;;;;;69.00;65.38;;;;;;;18.56;72.59;101063.69;5012180;28;102233;-55
2022/09/23 02:59:33;;;;;;;69.60;65.78;;;;;;;18.56;72.75;101069.22;5017354;28;102164;-55
2022/09/23 03:02:40;;;;;;;69.35;65.60;;;;;;;18.55;72.48;101064.84;5015404;28;103957;-55
2022/09/23 03:05:21;;;;;;;63.10;59.72;;;;;;;18.55;72.60;101067.59;4952858;28;102361;-55
2022/09/23 03:08:01;;;;;;;61.70;58.45;;;;;;;18.55;72.43;101073.91;5002729;28;102252;-55
2022/09/23 03:10:35;;;;;;;48.92;46.05;;;;;;;18.54;72.60;101072.28;5012733;28;103186;-55
2022/09/23 03:13:15;;;;;;;60.67;57.47;;;;;;;18.54;72.63;101077.00;5007229;28;103956;-55
2022/09/23 03:15:51;;;;;;;52.42;49.67;;;;;;;18.54;72.67;101072.28;5007751;28;102252;-56
2022/09/23 03:18:22;;;;;;;60.13;56.92;;;;;;;18.54;72.69;101075.06;5015708;28;102500;-55
2022/09/23 03:20:54;;;;;;;62.67;59.35;;;;;;;18.54;72.62;101077.00;5008490;28;102466;-55
2022/09/23 03:23:25;;;;;;;55.78;52.78;;;;;;;18.54;72.52;101074.25;5011848;28;104586;-55
2022/09/23 03:25:54;;;;;;;64.68;61.30;;;;;;;18.53;72.77;101072.59;5001504;28;102242;-55
2022/09/23 03:28:24;;;;;;;61.40;58.10;;;;;;;18.54;72.55;101077.00;5011325;28;102607;-55
2022/09/23 03:30:53;;;;;;;70.40;66.55;;;;;;;18.54;73.05;101071.47;5003035;28;102609;-55
2022/09/23 03:33:21;;;;;;;;;;;;;;;18.53;72.77;101069.84;5000182;28;103996;-56
2022/09/23 03:38:44;;;;;;;51.55;48.78;;;;;;;18.54;72.62;101079.75;5014237;28;102068;-56
2022/09/23 03:41:18;;;;;;;56.40;53.42;;;;;;;18.54;72.63;101079.75;5007883;28;102598;-54
2022/09/23 03:43:46;;;;;;;64.47;61.03;;;;;;;18.52;72.75;101077.28;4979146;28;104120;-55
2022/09/23 03:46:17;;;;;;;64.35;60.88;;;;;;;18.52;72.86;101085.56;4995787;28;101925;-55
2022/09/23 03:48:44;;;;;;;60.67;57.50;;;;;;;18.52;73.01;101084.75;4999264;28;102315;-56
2022/09/23 03:51:20;;;;;;;54.33;51.45;;;;;;;18.51;72.60;101083.13;5010950;28;102083;-55
2022/09/23 03:53:47;;;;;;;61.30;58.10;;;;;;;18.52;72.88;101084.75;5007641;28;103860;-55
2022/09/23 03:56:14;;;;;;;65.55;62.15;;;;;;;18.51;72.52;101086.69;5012253;28;102205;-55
2022/09/23 03:58:41;;;;;;;59.03;55.90;;;;;;;18.50;72.27;101087.84;5008072;28;102193;-55
2022/09/23 04:01:07;;;;;;;57.45;54.42;;;;;;;18.51;72.75;101080.38;5000634;28;102586;-56
2022/09/23 04:03:34;;;;;;;65.50;62.13;;;;;;;18.51;72.57;101083.13;4999897;28;103999;-55
2022/09/23 04:06:00;;;;;;;62.22;59.00;;;;;;;18.51;72.55;101083.13;5010193;28;102296;-54
2022/09/23 04:08:29;;;;;;;46.22;43.78;;;;;;;18.51;72.48;101083.13;5006236;28;104120;-55
2022/09/23 04:10:58;;;;;;;44.90;42.47;;;;;;;18.52;72.49;101090.28;5009835;28;102295;-55
2022/09/23 04:13:25;;;;;;;72.22;68.47;;;;;;;18.51;72.53;101088.66;4999163;28;103913;-55
2022/09/23 04:15:51;;;;;;;69.93;66.15;;;;;;;18.51;72.54;101080.38;5011149;28;102216;-55
2022/09/23 04:18:18;;;;;;;72.45;68.68;;;;;;;18.49;72.46;101078.72;4995962;28;101867;-55
2022/09/23 04:20:45;;;;;;;77.00;73.03;;;;;;;18.52;72.77;101082.00;5006513;28;102168;-55
2022/09/23 04:23:11;;;;;;;77.80;73.90;;;;;;;18.51;72.20;101080.38;5013579;28;103911;-55
2022/09/23 04:25:44;;;;;;;65.07;61.72;;;;;;;18.51;72.77;101088.66;5012448;28;104001;-56
2022/09/23 04:28:11;;;;;;;75.43;71.57;;;;;;;18.50;72.59;101082.31;5005949;28;102709;-56
2022/09/23 04:30:40;;;;;;;70.20;66.57;;;;;;;18.49;72.79;101087.00;5009427;28;102280;-55
2022/09/23 04:33:07;;;;;;;67.43;63.92;;;;;;;18.51;72.65;101086.69;5004731;28;104006;-55
2022/09/23 04:35:33;;;;;;;69.68;66.10;;;;;;;18.49;72.78;101087.00;5006531;28;102376;-55
2022/09/23 04:38:00;;;;;;;70.70;67.07;;;;;;;18.51;72.65;101099.66;5003045;28;102351;-55
2022/09/23 04:40:27;;;;;;;75.75;71.85;;;;;;;18.51;72.70;101094.16;4998869;28;102456;-55
2022/09/23 04:42:54;;;;;;;70.10;66.50;;;;;;;18.49;72.68;101092.50;5010592;28;104160;-55
2022/09/23 04:45:21;;;;;;;70.40;66.78;;;;;;;18.51;72.34;101096.91;5011557;28;102487;-55
2022/09/23 04:47:47;;;;;;;64.97;61.55;;;;;;;18.50;72.42;101098.88;5013034;28;103824;-56
2022/09/23 04:50:15;;;;;;;71.43;67.57;;;;;;;18.51;72.64;101094.16;5003960;28;102282;-55
2022/09/23 04:52:42;;;;;;;67.50;64.05;;;;;;;18.51;72.88;101088.66;5011130;28;103927;-56
2022/09/23 04:55:09;;;;;;;63.45;60.13;;;;;;;18.51;72.47;101088.66;5005343;28;102271;-56
2022/09/23 04:57:35;;;;;;;65.28;61.92;;;;;;;18.52;72.74;101090.28;5005897;28;102268;-55
2022/09/23 05:00:04;;;;;;;68.18;64.72;;;;;;;18.51;72.38;101088.66;5000559;28;102320;-55
2022/09/23 05:02:32;;;;;;;64.50;61.13;;;;;;;18.52;72.76;101095.78;5013545;28;104006;-55
2022/09/23 05:04:59;;;;;;;64.38;61.10;;;;;;;18.52;72.39;101106.81;5006970;28;104364;-55
2022/09/23 05:07:26;;;;;;;71.07;67.40;;;;;;;18.52;73.08;101098.53;5012369;28;103973;-55
2022/09/23 05:09:53;;;;;;;70.38;66.78;;;;;;;18.52;73.07;101093.84;5015338;28;102278;-56
2022/09/23 05:12:19;;;;;;;66.00;62.65;;;;;;;18.53;73.49;101098.22;5012732;28;104060;-55
2022/09/23 05:14:46;;;;;;;65.57;62.20;;;;;;;18.55;73.97;101100.66;5005210;28;102461;-54
2022/09/23 05:17:14;;;;;;;61.42;58.20;;;;;;;18.55;73.70;101101.47;5011170;28;102423;-55
2022/09/23 05:19:41;;;;;;;66.43;62.97;;;;;;;18.57;73.91;101109.41;5015554;28;102527;-55
2022/09/23 05:22:08;;;;;;;68.28;64.80;;;;;;;18.57;74.06;101098.38;5012034;28;104063;-55
2022/09/23 05:24:34;;;;;;;63.95;60.58;;;;;;;18.58;73.89;101105.56;5009243;28;102439;-55
2022/09/23 05:27:01;;;;;;;69.13;65.50;;;;;;;18.59;74.24;101104.41;5004545;28;102190;-55
2022/09/23 05:29:28;;;;;;;73.78;69.95;;;;;;;18.59;74.13;101101.66;5012492;28;102536;-55
2022/09/23 05:31:54;;;;;;;68.80;65.20;;;;;;;18.61;74.19;101104.91;5010789;28;104940;-55
2022/09/23 05:34:23;;;;;;;69.05;65.50;;;;;;;18.60;73.83;101095.81;5011796;28;102081;-55
2022/09/23 05:36:49;;;;;;;60.88;57.75;;;;;;;18.61;73.70;101093.88;5013651;28;102166;-55
2022/09/23 05:39:16;;;;;;;68.30;64.82;;;;;;;18.61;73.72;101094.72;5011716;28;102789;-55
2022/09/23 05:41:42;;;;;;;67.55;64.05;;;;;;;18.61;73.78;101099.38;5006392;28;104061;-55
2022/09/23 05:44:09;;;;;;;64.53;61.20;;;;;;;18.62;73.43;101098.28;5007596;28;102264;-55
2022/09/23 05:46:36;;;;;;;71.03;67.38;;;;;;;18.60;73.54;101098.56;5010424;28;102383;-54
2022/09/23 05:49:04;;;;;;;68.70;65.20;;;;;;;18.60;73.57;101106.03;4999272;28;102378;-54
2022/09/23 05:51:34;;;;;;;65.65;62.22;;;;;;;18.60;73.56;101106.84;4998985;28;107007;-55
2022/09/23 05:54:04;;;;;;;65.88;62.47;;;;;;;18.60;73.22;101103.28;4996100;28;102339;-54
2022/09/23 05:56:33;;;;;;;65.40;61.80;;;;;;;18.60;73.04;101103.28;4997897;28;102341;-55
2022/09/23 05:59:01;;;;;;;65.55;62.17;;;;;;;18.59;73.29;101101.66;5017247;28;102431;-55
2022/09/23 06:01:30;;;;;;;64.85;61.60;;;;;;;18.59;73.21;101107.97;5011625;28;104379;-55
2022/09/23 06:03:58;;;;;;;69.80;66.25;;;;;;;18.59;72.88;101107.16;5017467;28;102339;-55
2022/09/23 06:06:27;;;;;;;67.70;64.15;;;;;;;18.59;72.97;101107.16;5017161;28;102561;-55
2022/09/23 06:08:55;;;;;;;53.30;50.45;;;;;;;18.59;73.37;101109.94;5011879;28;102299;-55
2022/09/23 06:11:22;;;;;;;47.03;44.60;;;;;;;18.60;73.07;101108.78;5009318;28;104117;-55
2022/09/23 06:13:53;;;;;;;64.10;60.85;;;;;;;18.60;72.59;101111.53;5013137;28;102189;-55
2022/09/23 06:16:19;;;;;;;68.03;64.45;;;;;;;18.59;72.54;101107.16;5009563;28;102203;-55
2022/09/23 06:18:46;;;;;;;72.80;69.05;;;;;;;18.59;73.00;101112.69;5011421;28;102386;-54
2022/09/23 06:21:14;;;;;;;69.22;65.70;;;;;;;18.59;72.84;101107.16;5000147;28;104347;-55
2022/09/23 06:23:41;;;;;;;72.00;68.37;;;;;;;18.60;72.60;101111.53;5003886;28;102252;-55
2022/09/23 06:26:13;;;;;;;61.95;58.72;;;;;;;18.60;72.30;101114.31;5006698;28;103464;-55
2022/09/23 06:28:41;;;;;;;62.65;59.45;;;;;;;18.60;72.54;101114.31;5009868;28;102097;-55
2022/09/23 06:31:12;;;;;;;66.30;62.95;;;;;;;18.60;72.29;101109.59;5005351;28;105106;-55
2022/09/23 06:33:39;;;;;;;64.80;61.42;;;;;;;18.61;72.41;101110.41;5002298;28;102183;-55
2022/09/23 06:36:06;;;;;;;67.30;63.83;;;;;;;18.61;72.67;101115.91;5005010;28;102525;-55
2022/09/23 06:38:37;;;;;;;64.97;61.30;;;;;;;18.62;72.22;101112.06;5005691;28;102238;-56
2022/09/23 06:41:04;;;;;;;66.25;62.75;;;;;;;18.62;72.31;101117.56;5000964;28;103807;-55
2022/09/23 06:43:32;;;;;;;69.90;66.35;;;;;;;18.63;72.33;101114.47;5010510;28;102482;-55
2022/09/23 06:46:00;;;;;;;69.68;66.10;;;;;;;18.61;72.64;101108.50;5011224;28;102276;-55
2022/09/23 06:48:27;;;;;;;64.37;61.07;;;;;;;18.62;72.74;101112.06;5005604;28;102596;-57
2022/09/23 06:50:57;;;;;;;64.90;61.58;;;;;;;18.61;72.56;101111.25;5006237;28;104113;-56
2022/09/23 06:53:24;;;;;;;68.03;64.55;;;;;;;18.62;72.29;101110.09;5006853;28;102307;-55
2022/09/23 06:55:58;;;;;;;70.05;66.45;;;;;;;18.62;72.56;101112.88;5003554;28;102193;-55
2022/09/23 06:58:25;;;;;;;58.45;55.42;;;;;;;18.63;72.49;101105.41;5010357;28;102348;-55
2022/09/23 07:00:59;;;;;;;60.05;56.92;;;;;;;18.64;72.17;101112.53;5011016;28;103912;-55
2022/09/23 07:03:25;;;;;;;66.28;62.90;;;;;;;18.64;72.22;101120.81;5004219;28;102914;-55
2022/09/23 07:05:53;;;;;;;65.45;62.17;;;;;;;18.65;72.02;101114.19;4999971;28;102266;-55
2022/09/23 07:08:20;;;;;;;50.30;47.73;;;;;;;18.64;71.99;101109.78;5000267;28;102893;-54
2022/09/23 07:10:50;;;;;;;56.15;53.20;;;;;;;18.63;72.18;101116.44;5012485;28;103949;-55
2022/09/23 07:13:17;;;;;;;55.20;52.38;;;;;;;18.63;72.19;101110.91;5011674;28;103394;-54
2022/09/23 07:15:48;;;;;;;66.70;63.35;;;;;;;18.63;72.06;101113.69;5009270;28;102160;-56
2022/09/23 07:18:16;;;;;;;63.22;60.00;;;;;;;18.65;72.00;101116.94;5006229;28;102255;-55
2022/09/23 07:20:43;;;;;;;62.22;59.00;;;;;;;18.63;71.99;101114.47;5011430;28;104359;-56
2022/09/23 07:23:09;;;;;;;63.33;60.10;;;;;;;18.66;72.11;101118.56;5012895;28;102723;-55
2022/09/23 07:25:36;;;;;;;61.58;58.40;;;;;;;18.64;71.99;101104.25;5011967;28;102228;-55
2022/09/23 07:28:03;;;;;;;58.40;55.45;;;;;;;18.63;72.08;101103.47;5013182;28;104971;-55
2022/09/23 07:30:30;;;;;;;60.67;57.60;;;;;;;18.65;72.33;101105.91;5008844;28;104031;-55
2022/09/23 07:32:57;;;;;;;64.15;60.90;;;;;;;18.64;71.80;101109.78;5014142;28;102357;-55
2022/09/23 07:35:26;;;;;;;63.63;60.28;;;;;;;18.65;72.23;101111.44;5012796;28;102406;-54
2022/09/23 07:37:53;;;;;;;59.88;56.80;;;;;;;18.65;72.01;101112.25;5005882;28;102267;-54
2022/09/23 07:40:19;;;;;;;62.55;59.38;;;;;;;18.66;72.20;101107.53;5010216;28;103995;-54
2022/09/23 07:42:46;;;;;;;66.28;62.92;;;;;;;18.66;72.03;101105.59;5012339;28;102464;-56
2022/09/23 07:45:13;;;;;;;60.58;57.45;;;;;;;18.67;72.18;101109.16;5012726;28;102611;-55
2022/09/23 07:47:40;;;;;;;61.55;58.30;;;;;;;18.69;72.12;101106.91;5011498;28;102493;-55
2022/09/23 07:50:11;;;;;;;51.33;48.65;;;;;;;18.74;71.85;101106.78;5008007;28;103914;-54
2022/09/23 07:52:39;;;;;;;63.55;60.33;;;;;;;18.74;72.16;101104.03;5011997;28;102021;-55
2022/09/23 07:55:06;;;;;;;64.57;61.33;;;;;;;18.74;72.28;101109.53;5001734;28;102338;-55
2022/09/23 07:57:33;;;;;;;65.82;62.55;;;;;;;18.74;72.11;101104.03;5016665;28;102153;-55
2022/09/23 08:00:02;;;;;;;58.08;55.17;;;;;;;18.77;71.84;101103.41;5015462;28;104005;-54
2022/09/23 08:02:30;;;;;;;62.90;59.70;;;;;;;18.78;72.14;101099.50;5015116;28;102505;-55
2022/09/23 08:04:56;;;;;;;64.78;61.53;;;;;;;18.80;72.17;101097.25;5001086;28;103489;-54
2022/09/23 08:07:23;;;;;;;39.80;37.75;;;;;;;18.83;72.15;101093.88;5008267;28;102367;-55
2022/09/23 08:09:50;;;;;;;69.38;65.70;;;;;;;18.85;71.80;101093.53;5013399;28;104028;-56
2022/09/23 08:12:18;;;;;;;70.27;66.67;;;;;;;18.85;71.84;101093.53;5013182;28;102392;-55
2022/09/23 08:14:45;;;;;;;68.45;65.05;;;;;;;18.86;71.78;101090.47;5013232;28;102211;-55
2022/09/23 08:17:12;;;;;;;67.63;64.18;;;;;;;18.86;71.76;101084.97;5011036;28;102165;-55
2022/09/23 08:19:38;;;;;;;72.82;69.20;;;;;;;18.88;71.79;101085.44;5001361;28;104027;-55
2022/09/23 08:22:05;;;;;;;72.55;68.93;;;;;;;18.90;71.74;101093.41;4998688;28;102403;-54
2022/09/23 08:24:32;;;;;;;69.97;66.45;;;;;;;18.89;72.09;101094.53;5007227;28;102143;-54
2022/09/23 08:27:00;;;;;;;70.80;67.30;;;;;;;18.88;71.63;101093.72;5006381;28;102115;-55
2022/09/23 08:29:27;;;;;;;69.97;66.50;;;;;;;18.89;71.58;101077.97;5014223;28;103889;-54
2022/09/23 08:31:53;;;;;;;68.22;64.82;;;;;;;18.91;71.74;101092.28;5012055;28;102317;-54
2022/09/23 08:34:22;;;;;;;75.38;71.60;;;;;;;18.90;71.63;101085.94;5011397;28;102405;-55
2022/09/23 08:36:49;;;;;;;66.85;63.47;;;;;;;18.91;71.60;101090.31;5004291;28;102996;-54
2022/09/23 08:39:17;;;;;;;68.90;65.43;;;;;;;18.89;71.84;101095.34;5000354;28;104173;-55
2022/09/23 08:41:57;;;;;;;66.07;62.70;;;;;;;18.88;71.62;101088.19;5008370;28;102305;-55
2022/09/23 08:44:31;;;;;;;65.30;62.00;;;;;;;18.89;71.44;101081.53;5009915;28;102750;-54
2022/09/23 08:47:10;;;;;;;67.25;63.88;;;;;;;18.90;71.74;101083.19;5012313;28;102714;-54
2022/09/23 08:49:40;;;;;;;61.60;58.53;;;;;;;18.91;71.10;101086.75;4997509;28;104509;-56
2022/09/23 08:52:13;;;;;;;68.40;64.90;;;;;;;18.93;71.47;101087.22;4998978;28;102662;-56
2022/09/23 08:54:40;;;;;;;62.08;58.67;;;;;;;18.93;71.28;101084.47;5002092;28;102627;-55
2022/09/23 08:57:16;;;;;;;72.68;69.05;;;;;;;18.92;71.14;101089.19;5012531;28;102261;-55
2022/09/23 08:59:44;;;;;;;66.82;63.50;;;;;;;18.91;71.18;101087.56;5007155;28;103900;-55
2022/09/23 09:02:16;;;;;;;63.97;60.63;;;;;;;18.90;71.52;101080.44;5011362;28;102512;-55
2022/09/23 09:04:48;;;;;;;69.40;65.93;;;;;;;18.89;71.63;101086.25;4993180;28;102424;-55
2022/09/23 09:07:18;;;;;;;64.90;61.53;;;;;;;18.87;71.77;101083.81;4993242;28;102287;-55
2022/09/23 09:09:49;;;;;;;62.83;59.58;;;;;;;18.85;71.68;101077.81;4986426;28;103993;-55
2022/09/23 09:12:17;;;;;;;65.25;61.97;;;;;;;18.83;71.43;101080.09;4988447;28;102366;-55
2022/09/23 09:14:51;;;;;;;;;;;;;;;18.82;71.64;101078.44;4993080;28;102928;-55
2022/09/23 09:17:28;;;;;;;53.28;50.63;;;;;;;18.81;71.32;101085.09;4982448;28;102487;-54
2022/09/23 09:19:56;;;;;;;56.72;53.88;;;;;;;18.79;71.49;101079.09;4985292;28;103856;-54
2022/09/23 09:22:39;;;;;;;58.97;56.00;;;;;;;18.79;71.17;101079.09;4992512;28;102207;-55
2022/09/23 09:25:18;;;;;;;60.15;57.10;;;;;;;18.79;71.09;101087.38;4995498;28;103036;-54
2022/09/23 09:27:46;;;;;;;63.17;59.85;;;;;;;18.79;71.27;101098.41;4991757;28;102089;-54
2022/09/23 09:30:15;;;;;;;62.40;59.20;;;;;;;18.79;71.32;101095.63;4987986;28;103955;-55
2022/09/23 09:32:47;;;;;;;54.90;52.17;;;;;;;18.79;71.32;101101.16;4985521;28;102465;-55
2022/09/23 09:35:25;;;;;;;66.72;63.33;;;;;;;18.79;71.16;101090.13;4998099;28;102537;-54
2022/09/23 09:37:52;;;;;;;;;;;;;;;18.80;70.88;101094.50;5016739;27;102343;-55
2022/09/23 09:40:19;;;;;;;53.35;50.63;;;;;;;18.81;70.93;101090.59;4990788;28;104066;-55
2022/09/23 09:42:48;;;;;;;62.15;59.05;;;;;;;18.82;71.07;101094.97;4982594;28;102448;-55
2022/09/23 09:45:26;;;;;;;60.90;57.80;;;;;;;18.84;70.93;101095.47;4991936;28;104332;-55
2022/09/23 09:48:01;;;;;;;53.10;50.33;;;;;;;18.84;71.04;101098.25;4984111;28;102896;-54
2022/09/23 09:50:43;;;;;;;65.00;61.60;;;;;;;18.84;71.05;101095.47;5008773;28;104052;-55
2022/09/23 09:53:24;;;;;;;62.40;59.22;;;;;;;18.85;71.03;101088.84;5006702;28;102317;-55
2022/09/23 09:56:09;;;;;;;57.67;54.72;;;;;;;18.85;70.87;101091.59;4991468;28;102392;-55
2022/09/23 09:58:45;;;;;;;54.15;51.35;;;;;;;18.87;70.47;101092.09;4993551;28;102133;-56
2022/09/23 10:01:21;;;;;;;58.97;56.00;;;;;;;18.84;70.54;101097.44;4990082;28;104254;-55
2022/09/23 10:03:51;;;;;;;54.53;51.80;;;;;;;18.83;70.79;101096.63;4987046;28;102802;-55
2022/09/23 10:06:21;;;;;;;42.53;40.38;;;;;;;18.82;70.64;101089.47;4986628;28;102271;-56
2022/09/23 10:09:02;;;;;;;43.92;41.65;;;;;;;18.80;70.86;101088.97;5012272;28;102255;-54
2022/09/23 10:11:30;;;;;;;40.75;38.70;;;;;;;18.80;70.48;101083.47;4996020;28;104004;-55
2022/09/23 10:14:04;;;;;;;46.92;44.40;;;;;;;18.79;70.59;101076.34;5000346;28;103538;-54
2022/09/23 10:16:33;;;;;;;46.97;44.63;;;;;;;18.82;70.64;101078.44;4995983;28;102798;-55
2022/09/23 10:19:01;;;;;;;39.20;37.17;;;;;;;18.80;70.54;101086.22;4985005;28;102596;-55
2022/09/23 10:21:35;;;;;;;47.13;44.63;;;;;;;18.81;70.96;101076.00;4994501;28;103978;-55
2022/09/23 10:24:04;;;;;;;40.95;38.72;;;;;;;18.81;70.77;101078.75;5005210;28;103695;-55
2022/09/23 10:26:33;;;;;;;42.20;39.97;;;;;;;18.79;71.17;101081.84;5005025;28;102224;-55
2022/09/23 10:29:01;;;;;;;43.50;41.10;;;;;;;18.79;70.76;101079.09;5008109;28;102345;-55
2022/09/23 10:31:30;;;;;;;42.20;39.87;;;;;;;18.80;71.00;101069.69;5005553;28;104107;-55
2022/09/23 10:34:00;;;;;;;46.80;44.20;;;;;;;18.79;70.73;101079.09;5009692;28;102318;-55
2022/09/23 10:36:28;;;;;;;42.50;40.00;;;;;;;18.81;71.04;101076.81;5009315;28;102566;-55
2022/09/23 10:46:37;;;;;;;41.90;39.65;;;;;;;18.80;70.45;101069.69;5009179;28;102191;-55
2022/09/23 10:47:49;;;;;;;40.55;38.40;;;;;;;18.83;70.80;101071.00;5004429;28;102231;-54
2022/09/23 10:50:22;;;;;;;;;;;;;;;18.81;70.45;101062.22;5014273;28;102524;-55
2022/09/23 10:53:03;;;;;;;38.78;36.58;;;;;;;18.83;70.50;101066.28;5013186;28;104005;-54
2022/09/23 10:55:42;;;;;;;44.15;41.90;;;;;;;18.82;70.42;101064.66;5012734;28;102461;-55
2022/09/23 10:58:33;;;;;;;47.08;44.58;;;;;;;18.81;70.45;101068.53;5014509;28;102586;-54
2022/09/23 11:01:12;;;;;;;43.80;41.47;;;;;;;18.80;70.24;101069.69;5006970;28;102541;-55
2022/09/23 11:04:31;;;;;;;41.13;38.92;;;;;;;18.81;70.55;101074.06;5007345;28;103938;-55
2022/09/23 11:07:18;;;;;;;44.58;42.22;;;;;;;18.80;70.00;101069.69;4949808;28;102357;-54
2022/09/23 11:10:03;;;;;;;49.20;46.65;;;;;;;18.81;70.11;101070.50;5011304;28;102296;-55
2022/09/23 11:12:40;;;;;;;58.33;55.33;;;;;;;18.80;70.27;101064.16;5000003;28;102418;-54
2022/09/23 11:15:25;;;;;;;51.67;48.95;;;;;;;18.79;69.80;101068.06;5006209;28;104304;-55
2022/09/23 11:18:10;;;;;;;53.80;51.05;;;;;;;18.80;70.32;101066.94;5012416;28;103877;-54
2022/09/23 11:20:47;;;;;;;50.75;48.15;;;;;;;18.79;70.43;101065.31;5006664;28;103456;-55
2022/09/23 11:23:41;;;;;;;53.72;51.00;;;;;;;18.78;70.38;101060.91;5011268;28;102381;-56
2022/09/23 11:26:22;;;;;;;50.28;47.70;;;;;;;18.77;69.73;101064.81;5007953;28;103970;-55
2022/09/23 11:29:24;;;;;;;44.10;41.88;;;;;;;18.78;69.83;101069.19;5010649;28;102448;-55